Time;durP1;ratioP1;P1;durP2;ratioP2;P2;SDS_P1;SDS_P2;PMS_P1;PMS_P2;Temp;Humidity;BMP_temperature;BMP_pressure;BME280_temperature;BME280_humidity;BME280_pressure;Samples;Min_cycle;Max_cycle;Signal;HPM_P1;HPM_P2
2024/01/10 00:07:24;;;;;;;5.00;2.92;;;;;;;12.15;48.95;96883.53;6155671;23;20012;-27
2024/01/10 00:09:49;;;;;;;5.40;2.90;;;;;;;11.98;49.27;96890.94;6155066;23;20423;-27
2024/01/10 00:12:15;;;;;;;4.43;2.53;;;;;;;11.95;49.15;96889.06;6155991;23;20001;-26
2024/01/10 00:24:52;;;;;;;5.43;2.97;;;;;;;11.83;49.38;96882.31;6155182;23;20049;-26
2024/01/10 00:37:48;;;;;;;5.18;2.60;;;;;;;11.80;49.26;96877.72;6155070;23;20012;-26
2024/01/10 00:54:05;;;;;;;5.82;2.80;;;;;;;11.87;48.59;96906.69;6155391;23;20448;-26
2024/01/10 00:56:30;;;;;;;5.47;3.05;;;;;;;12.07;48.37;96910.13;6155198;23;20010;-26
2024/01/10 01:09:02;;;;;;;8.60;3.13;;;;;;;11.81;48.44;96901.00;6155094;23;20020;-27
2024/01/10 01:24:54;;;;;;;4.30;2.47;;;;;;;11.88;48.38;96925.28;6155837;23;20044;-27
2024/01/10 01:55:07;;;;;;;6.07;2.83;;;;;;;11.94;48.53;96924.81;6157116;23;20036;-26
2024/01/10 02:11:04;;;;;;;4.45;2.60;;;;;;;11.90;48.09;96932.25;6156527;23;20126;-26
2024/01/10 02:27:15;;;;;;;6.07;2.70;;;;;;;11.75;48.25;96927.13;6155281;23;20462;-27
2024/01/10 02:40:35;;;;;;;5.28;2.92;;;;;;;11.74;48.08;96925.59;6156593;23;20095;-26
2024/01/10 02:56:27;;;;;;;4.68;2.65;;;;;;;11.75;48.04;96921.69;6155833;23;20017;-27
2024/01/10 03:12:20;;;;;;;5.65;2.88;;;;;;;11.72;47.90;96929.91;6156254;23;20020;-26
2024/01/10 03:42:31;;;;;;;5.32;2.92;;;;;;;11.73;48.72;96921.34;6155554;23;20056;-27
2024/01/10 03:44:57;;;;;;;5.85;2.85;;;;;;;11.69;48.61;96917.94;6156004;23;20014;-26
2024/01/10 03:57:27;;;;;;;6.85;3.13;;;;;;;11.63;48.74;96925.03;6155272;23;20021;-26
2024/01/10 04:13:20;;;;;;;5.60;2.60;;;;;;;11.45;49.00;96922.72;6155505;23;20016;-26
2024/01/10 04:44:00;;;;;;;4.80;2.63;;;;;;;11.59;48.62;96935.22;6126095;23;20088;-26
2024/01/10 04:57:11;;;;;;;4.93;2.67;;;;;;;11.69;48.46;96941.63;6125854;23;20101;-26
2024/01/10 05:13:03;;;;;;;5.63;3.13;;;;;;;11.54;49.09;96946.59;6125686;23;20394;-26
2024/01/10 05:28:54;;;;;;;5.38;2.40;;;;;;;11.56;49.00;96946.94;6149926;23;20033;-26
2024/01/10 05:44:47;;;;;;;4.13;2.60;;;;;;;11.50;49.26;96960.22;6155272;23;20021;-27
2024/01/10 05:57:55;;;;;;;4.95;2.55;;;;;;;11.69;48.96;96975.00;6155317;23;20016;-26
2024/01/10 06:13:47;;;;;;;6.53;3.60;;;;;;;11.64;49.40;96975.47;6156400;23;20020;-27
2024/01/10 06:29:39;;;;;;;5.93;2.80;;;;;;;11.64;50.24;96983.63;6155153;23;20076;-26
2024/01/10 06:32:06;;;;;;;5.43;3.15;;;;;;;11.74;50.19;96984.63;6156519;23;20327;-26
2024/01/10 06:44:36;;;;;;;4.50;2.60;;;;;;;11.50;50.92;96983.91;6156276;23;20497;-27
2024/01/10 07:00:29;;;;;;;7.90;2.63;;;;;;;11.71;50.57;96997.09;6155969;23;20017;-27
2024/01/10 07:13:49;;;;;;;4.57;2.53;;;;;;;11.66;50.81;97013.09;6155751;23;20020;-26
2024/01/10 07:29:42;;;;;;;6.80;3.30;;;;;;;11.61;51.18;97016.31;6154799;23;20087;-27
2024/01/10 07:45:35;;;;;;;7.10;4.40;;;;;;;11.57;51.81;97031.91;6155612;23;20016;-26
2024/01/10 08:01:27;;;;;;;4.88;3.13;;;;;;;11.81;51.76;97045.03;6155467;23;20379;-27
2024/01/10 08:14:32;;;;;;;8.30;4.30;;;;;;;11.66;51.66;97046.47;6155595;23;20064;-26
2024/01/10 08:16:58;;;;;;;8.30;4.63;;;;;;;11.77;51.50;97049.75;6155156;23;20005;-26
2024/01/10 08:29:44;;;;;;;6.25;3.25;;;;;;;11.79;51.01;97054.78;6154371;23;20055;-26
2024/01/10 08:45:36;;;;;;;8.15;3.28;;;;;;;11.75;52.14;97075.78;6125590;23;20048;-26
2024/01/10 09:01:28;;;;;;;5.22;3.10;;;;;;;11.76;52.30;97089.00;6125546;23;20033;-27
2024/01/10 09:30:47;;;;;;;5.95;3.25;;;;;;;11.83;52.15;97104.41;6137229;23;20028;-26
2024/01/10 09:46:43;;;;;;;6.40;3.15;;;;;;;11.92;52.38;97092.97;6156721;23;20064;-26
2024/01/10 10:02:38;;;;;;;5.85;3.17;;;;;;;12.08;52.58;97090.31;6156420;23;20097;-27
2024/01/10 10:15:59;;;;;;;6.53;3.78;;;;;;;11.95;52.93;97073.13;6166958;23;20320;-26
2024/01/10 10:31:51;;;;;;;8.95;5.22;;;;;;;12.05;52.22;97064.75;6155101;23;20564;-26
2024/01/10 10:47:46;;;;;;;15.18;6.97;;;;;;;12.16;52.44;97059.06;6156408;23;20016;-26
2024/01/10 11:03:40;;;;;;;20.98;10.32;;;;;;;12.19;52.56;97060.97;6156221;23;20017;-26
2024/01/10 11:17:05;;;;;;;10.00;5.78;;;;;;;12.20;52.32;97062.50;6156224;23;20115;-27
2024/01/10 11:33:31;;;;;;;14.60;8.00;;;;;;;12.17;52.60;97038.84;6035571;23;20488;-27
2024/01/10 12:02:50;;;;;;;6.10;4.22;;;;;;;12.07;52.88;97018.88;6155215;23;20028;-26
2024/01/10 12:18:43;;;;;;;7.20;3.20;;;;;;;12.10;53.03;97012.59;6155450;23;20064;-26
2024/01/10 12:48:28;;;;;;;12.70;7.40;;;;;;;12.03;53.21;96995.66;6154980;23;20496;-27
2024/01/10 13:04:20;;;;;;;86.35;32.78;;;;;;;12.06;52.67;96992.09;6155262;23;20032;-26
2024/01/10 13:34:30;;;;;;;17.30;9.68;;;;;;;12.07;52.97;96985.47;6155803;23;20028;-27
2024/01/10 13:50:25;;;;;;;11.55;6.28;;;;;;;12.01;52.87;96979.00;6156606;23;20061;-27
2024/01/10 14:03:37;;;;;;;11.82;6.60;;;;;;;11.97;53.43;96975.59;6156778;23;20113;-26
2024/01/10 14:06:02;;;;;;;23.40;11.95;;;;;;;12.07;52.77;96971.88;6156612;23;20012;-26
2024/01/10 14:08:28;;;;;;;26.45;14.57;;;;;;;12.07;52.88;96963.72;6157117;23;20318;-26
2024/01/10 14:34:25;;;;;;;13.25;7.65;;;;;;;12.05;52.81;96969.59;6155297;23;20060;-27
2024/01/10 14:50:18;;;;;;;15.57;8.40;;;;;;;11.82;53.72;96970.47;6156335;23;20017;-27
2024/01/10 15:06:11;;;;;;;14.43;9.60;;;;;;;12.00;53.57;96972.03;6156173;23;20442;-26
2024/01/10 15:19:28;;;;;;;15.32;10.43;;;;;;;11.94;53.69;96966.34;6155963;23;20013;-26
2024/01/10 15:35:21;;;;;;;10.65;5.80;;;;;;;12.06;53.69;96962.97;6154315;23;20171;-26
2024/01/10 15:51:13;;;;;;;47.95;29.00;;;;;;;12.04;53.97;96962.63;6155833;23;20399;-27
2024/01/10 16:07:06;;;;;;;11.10;6.88;;;;;;;12.17;52.85;96968.16;6155887;23;20052;-27
2024/01/10 16:20:10;;;;;;;12.38;7.38;;;;;;;11.97;53.28;96959.31;6155402;23;20056;-27
2024/01/10 16:36:02;;;;;;;13.48;8.98;;;;;;;11.96;53.11;96957.78;6154086;23;20103;-27
2024/01/10 16:51:55;;;;;;;34.38;21.63;;;;;;;12.00;53.28;96966.59;6155324;23;20020;-27
2024/01/10 17:07:47;;;;;;;17.13;9.85;;;;;;;11.96;53.19;96961.25;6155169;23;20020;-27
2024/01/10 17:20:49;;;;;;;29.67;17.17;;;;;;;11.86;53.15;96960.31;6155215;23;20020;-27
2024/01/10 17:36:40;;;;;;;15.15;7.55;;;;;;;11.92;53.10;96957.84;6153866;23;20036;-27
2024/01/10 17:52:32;;;;;;;65.07;31.75;;;;;;;11.99;52.78;96954.22;6154711;23;20501;-27
2024/01/10 18:08:24;;;;;;;20.27;11.68;;;;;;;12.07;52.24;96963.72;6156819;23;20032;-27
2024/01/10 18:21:27;;;;;;;9.90;5.68;;;;;;;12.14;51.67;96969.00;6156110;23;20344;-27
2024/01/10 18:37:19;;;;;;;14.00;9.82;;;;;;;12.03;52.30;96965.75;6155020;23;20028;-28
2024/01/10 18:53:12;;;;;;;16.55;9.68;;;;;;;11.88;52.60;96959.84;6156807;23;20060;-27
2024/01/10 19:22:57;;;;;;;12.73;7.95;;;;;;;11.76;52.58;96939.53;6155758;23;20021;-27
2024/01/10 19:38:51;;;;;;;54.83;27.65;;;;;;;11.63;52.66;96946.78;6152481;23;20049;-27
2024/01/10 19:54:44;;;;;;;42.50;25.08;;;;;;;11.95;51.66;96943.41;6155475;23;20021;-27
2024/01/10 20:10:36;;;;;;;15.18;9.18;;;;;;;11.97;51.28;96938.31;6155535;23;20084;-27
2024/01/10 20:39:56;;;;;;;14.20;7.63;;;;;;;11.76;52.07;96942.25;6154250;23;20028;-27
2024/01/10 20:55:49;;;;;;;11.15;6.60;;;;;;;11.71;52.16;96931.09;6155590;23;20036;-27
2024/01/10 21:11:42;;;;;;;20.10;9.95;;;;;;;11.72;51.78;96927.97;6155108;23;20458;-27
2024/01/10 21:24:57;;;;;;;17.67;9.20;;;;;;;11.90;51.45;96932.25;6154824;23;20020;-27
2024/01/10 21:40:49;;;;;;;10.32;5.60;;;;;;;11.67;52.01;96936.59;6155566;23;20358;-27
2024/01/10 21:56:41;;;;;;;10.77;7.13;;;;;;;11.68;52.14;96927.28;6156695;23;20033;-27
2024/01/10 22:12:33;;;;;;;10.25;6.80;;;;;;;11.85;51.77;96919.97;6156821;23;20036;-27
2024/01/10 22:25:38;;;;;;;9.23;4.93;;;;;;;11.74;51.70;96920.16;6156457;23;20092;-27
2024/01/10 22:41:30;;;;;;;8.27;4.82;;;;;;;11.80;51.36;96915.78;6154584;23;20525;-27
2024/01/10 22:43:55;;;;;;;7.28;4.45;;;;;;;11.89;51.39;96912.47;6156463;23;20009;-27
2024/01/10 22:56:26;;;;;;;7.68;4.18;;;;;;;11.71;51.47;96910.13;6155965;23;20375;-27
2024/01/10 23:12:18;;;;;;;9.25;5.97;;;;;;;11.66;51.49;96904.41;6156195;23;20023;-27
2024/01/10 23:28:11;;;;;;;10.20;5.45;;;;;;;11.72;51.42;96889.94;6155589;23;20016;-27
2024/01/10 23:44:16;;;;;;;8.05;4.68;;;;;;;11.65;51.28;96873.00;6153904;23;20043;-27
2024/01/10 23:46:42;;;;;;;7.35;4.90;;;;;;;11.73;51.24;96874.41;6156081;23;20451;-27
2024/01/10 23:59:13;;;;;;;6.47;4.07;;;;;;;11.65;51.36;96864.84;6155829;23;20056;-27
